Longmeadow, Massachusetts
Current Conditions -  °F | °C
As of 12:51 AM on Sunday 21 Dec 2014 (Local Time) from KBDL Reporting Station
Overcast Overcast  
Wind Chill: 26°   Ceiling: 1900
Heat Index: 32°   Visibility: 9mi
Dew Point: 27°   Wind: 7mph
Humidity: 82%   Direction: 360°N
Pressure: 30.27"   Gusts: NA
Location:  42.05°N, 72.58°W
Report Text: KBDL 210551Z 36006KT 9SM BKN019 OVC029 00/M03 A3027 RMK AO2 SLP251 T00001028 10006 21006 57006 $
Loading
Personal Weather Stations






























Interactive Weather Map New forecast layout! Learn more

10-Day Weather Forecast

Advertisements
Track Severe Weather on mobile